Time;durP1;ratioP1;P1;durP2;ratioP2;P2;SDS_P1;SDS_P2;PMS_P1;PMS_P2;Temp;Humidity;BMP_temperature;BMP_pressure;BME280_temperature;BME280_humidity;BME280_pressure;Samples;Min_cycle;Max_cycle;Signal;HPM_P1;HPM_P2
2023/03/28 00:00:46;;;;;;;;;;;;;;;;;;5068672;28;4979;-57
2023/03/28 00:03:13;;;;;;;;;;;;;;;;;;5070814;28;4688;-57
2023/03/28 00:05:43;;;;;;;;;;;;;;;;;;5072862;28;4844;-57
2023/03/28 00:08:10;;;;;;;;;;;;;;;;;;5069056;28;4754;-58
2023/03/28 00:10:36;;;;;;;;;;;;;;;;;;5113063;28;1179;-57
2023/03/28 00:13:01;;;;;;;;;;;;;;;;;;5077921;28;4612;-57
2023/03/28 00:15:27;;;;;;;;;;;;;;;;;;5078150;28;4980;-57
2023/03/28 00:17:52;;;;;;;;;;;;;;;;;;5078642;28;4458;-57
2023/03/28 00:20:18;;;;;;;;;;;;;;;;;;5069356;28;4508;-57
2023/03/28 00:22:47;;;;;;;;;;;;;;;;;;5072645;28;1967;-58
2023/03/28 00:25:12;;;;;;;;;;;;;;;;;;5068544;28;4540;-56
2023/03/28 00:27:37;;;;;;;;;;;;;;;;;;5067855;28;4962;-56
2023/03/28 00:30:03;;;;;;;;;;;;;;;;;;5064655;28;5124;-57
2023/03/28 00:32:29;;;;;;;;;;;;;;;;;;5079645;28;4767;-57
2023/03/28 00:34:55;;;;;;;;;;;;;;;;;;5072534;28;5065;-57
2023/03/28 00:37:21;;;;;;;;;;;;;;;;;;5078898;28;1204;-57
2023/03/28 00:39:49;;;;;;;;;;;;;;;;;;5074056;28;4870;-57
2023/03/28 00:42:16;;;;;;;;;;;;;;;;;;5079526;28;5474;-56
2023/03/28 00:44:42;;;;;;;;;;;;;;;;;;5105206;28;4989;-56
2023/03/28 00:47:14;;;;;;;;;;;;;;;;;;5078877;28;4449;-56
2023/03/28 00:49:39;;;;;;;;;;;;;;;;;;5074277;28;2067;-55
2023/03/28 00:52:05;;;;;;;;;;;;;;;;;;5106574;28;4522;-57
2023/03/28 00:54:31;;;;;;;;;;;;;;;;;;5076636;28;4440;-57
2023/03/28 00:56:57;;;;;;;;;;;;;;;;;;5076162;28;5042;-57
2023/03/28 00:59:23;;;;;;;;;;;;;;;;;;5065834;28;5033;-54
2023/03/28 01:01:48;;;;;;;;;;;;;;;;;;5072070;28;1161;-55
2023/03/28 01:04:19;;;;;;;;;;;;;;;;;;5059908;28;4821;-55
2023/03/28 01:06:45;;;;;;;;;;;;;;;;;;5076767;28;4447;-57
2023/03/28 01:09:10;;;;;;;;;;;;;;;;;;5082013;28;4899;-57
2023/03/28 01:11:36;;;;;;;;;;;;;;;;;;5073903;28;4785;-55
2023/03/28 01:14:03;;;;;;;;;;;;;;;;;;5112440;27;4599;-57
2023/03/28 01:16:31;;;;;;;;;;;;;;;;;;5081088;28;1136;-57
2023/03/28 01:19:01;;;;;;;;;;;;;;;;;;5073711;28;4920;-57
2023/03/28 01:21:39;;;;;;;;;;;;;;;;;;5073862;28;4641;-57
2023/03/28 01:24:10;;;;;;;;;;;;;;;;;;5081753;28;4510;-56
2023/03/28 01:26:54;;;;;;;;;;;;;;;;;;5071190;28;5336;-58
2023/03/28 01:29:38;;;;;;;;;;;;;;;;;;5070160;28;4603;-57
2023/03/28 01:32:22;;;;;;;;;;;;;;;;;;5077852;28;4611;-56
2023/03/28 01:34:47;;;;;;;;;;;;;;;;;;5072331;28;1137;-57
2023/03/28 01:37:13;;;;;;;;;;;;;;;;;;5082163;28;4933;-58
2023/03/28 01:39:38;;;;;;;;;;;;;;;;;;5073661;28;5206;-57
2023/03/28 01:42:16;;;;;;;;;;;;;;;;;;5079774;28;5077;-56
2023/03/28 01:45:07;;;;;;;;;;;;;;;;;;5077517;28;4463;-58
2023/03/28 01:47:33;;;;;;;;;;;;;;;;;;5076416;28;5440;-57
2023/03/28 01:50:02;;;;;;;;;;;;;;;;;;5086377;28;4552;-57
2023/03/28 01:52:46;;;;;;;;;;;;;;;;;;5078680;28;1074;-56
2023/03/28 01:55:16;;;;;;;;;;;;;;;;;;5072590;28;4425;-57
2023/03/28 01:57:50;;;;;;;;;;;;;;;;;;5070871;28;4531;-57
2023/03/28 02:00:22;;;;;;;;;;;;;;;;;;5100485;27;4721;-57
2023/03/28 02:02:49;;;;;;;;;;;;;;;;;;5113947;27;4926;-55
2023/03/28 02:05:15;;;;;;;;;;;;;;;;;;5108961;27;4760;-56
2023/03/28 02:07:40;;;;;;;;;;;;;;;;;;5069984;28;1167;-57
2023/03/28 02:10:06;;;;;;;;;;;;;;;;;;5104045;27;4473;-57
2023/03/28 02:12:39;;;;;;;;;;;;;;;;;;5110150;27;4664;-57
2023/03/28 02:15:05;;;;;;;;;;;;;;;;;;5075460;28;5152;-57
2023/03/28 02:17:33;;;;;;;;;;;;;;;;;;5071732;28;5075;-53
2023/03/28 02:19:59;;;;;;;;;;;;;;;;;;5087294;28;4660;-57
2023/03/28 02:22:26;;;;;;;;;;;;;;;;;;5072118;28;1918;-57
2023/03/28 02:24:51;;;;;;;;;;;;;;;;;;5102594;27;4592;-57
2023/03/28 02:27:17;;;;;;;;;;;;;;;;;;5061112;28;4653;-57
2023/03/28 02:29:43;;;;;;;;;;;;;;;;;;5078968;28;4695;-57
2023/03/28 02:32:08;;;;;;;;;;;;;;;;;;5066514;28;4471;-55
2023/03/28 02:34:34;;;;;;;;;;;;;;;;;;5074406;28;1094;-58
2023/03/28 02:37:06;;;;;;;;;;;;;;;;;;5073618;28;4568;-58
2023/03/28 02:39:31;;;;;;;;;;;;;;;;;;5098078;27;4916;-57
2023/03/28 02:42:12;;;;;;;;;;;;;;;;;;5071774;28;4956;-57
2023/03/28 02:44:45;;;;;;;;;;;;;;;;;;5068617;28;4439;-58
2023/03/28 02:47:14;;;;;;;;;;;;;;;;;;5100769;27;4705;-57
2023/03/28 02:49:39;;;;;;;;;;;;;;;;;;5094418;28;2122;-57
2023/03/28 02:52:13;;;;;;;;;;;;;;;;;;5075855;28;5041;-57
2023/03/28 02:54:44;;;;;;;;;;;;;;;;;;5076392;28;4423;-57
2023/03/28 02:57:40;;;;;;;;;;;;;;;;;;5101887;27;4605;-57
2023/03/28 03:00:15;;;;;;;;;;;;;;;;;;5070863;28;4455;-58
2023/03/28 03:02:44;;;;;;;;;;;;;;;;;;5066153;28;4491;-57
2023/03/28 03:05:10;;;;;;;;;;;;;;;;;;5091858;28;5136;-57
2023/03/28 03:07:38;;;;;;;;;;;;;;;;;;5080111;28;3156;-58
2023/03/28 03:10:05;;;;;;;;;;;;;;;;;;5078377;28;4594;-57
2023/03/28 03:12:31;;;;;;;;;;;;;;;;;;5070740;28;4478;-57
2023/03/28 03:14:59;;;;;;;;;;;;;;;;;;5078538;28;5017;-55
2023/03/28 03:17:25;;;;;;;;;;;;;;;;;;5084094;28;5093;-58
2023/03/28 03:19:51;;;;;;;;;;;;;;;;;;5076467;28;1287;-58
2023/03/28 03:22:16;;;;;;;;;;;;;;;;;;5075150;28;4508;-56
2023/03/28 03:24:41;;;;;;;;;;;;;;;;;;5075598;28;4599;-56
2023/03/28 03:27:06;;;;;;;;;;;;;;;;;;5077988;28;4521;-58
2023/03/28 03:29:32;;;;;;;;;;;;;;;;;;5069461;28;4621;-57
2023/03/28 03:31:57;;;;;;;;;;;;;;;;;;5082600;28;4755;-57
2023/03/28 03:34:23;;;;;;;;;;;;;;;;;;5081023;28;1178;-57
2023/03/28 03:36:51;;;;;;;;;;;;;;;;;;5077971;28;5016;-57
2023/03/28 03:39:17;;;;;;;;;;;;;;;;;;5061603;28;4916;-56
2023/03/28 03:41:42;;;;;;;;;;;;;;;;;;5070447;28;5120;-57
2023/03/28 03:44:07;;;;;;;;;;;;;;;;;;5080560;28;4861;-58
2023/03/28 03:46:32;;;;;;;;;;;;;;;;;;5070262;28;2099;-57
2023/03/28 03:48:58;;;;;;;;;;;;;;;;;;5080915;28;4530;-57
2023/03/28 03:51:23;;;;;;;;;;;;;;;;;;5079936;28;5036;-57
2023/03/28 03:53:49;;;;;;;;;;;;;;;;;;5079888;28;4633;-57
2023/03/28 03:56:14;;;;;;;;;;;;;;;;;;5073515;28;4460;-51
2023/03/28 03:58:40;;;;;;;;;;;;;;;;;;5068522;28;1400;-57
2023/03/28 04:01:08;;;;;;;;;;;;;;;;;;5075902;28;4384;-55
2023/03/28 04:03:33;;;;;;;;;;;;;;;;;;5068307;28;4435;-57
2023/03/28 04:06:00;;;;;;;;;;;;;;;;;;5073175;28;4999;-57
2023/03/28 04:08:25;;;;;;;;;;;;;;;;;;5070719;28;4475;-57
2023/03/28 04:10:51;;;;;;;;;;;;;;;;;;5079513;28;2150;-56
2023/03/28 04:13:16;;;;;;;;;;;;;;;;;;5083808;28;4879;-57
2023/03/28 04:15:41;;;;;;;;;;;;;;;;;;5077672;28;4597;-58
2023/03/28 04:18:07;;;;;;;;;;;;;;;;;;5082232;28;4599;-57
2023/03/28 04:20:32;;;;;;;;;;;;;;;;;;5077666;28;4662;-57
2023/03/28 04:22:59;;;;;;;;;;;;;;;;;;5080172;28;4717;-57
2023/03/28 04:25:25;;;;;;;;;;;;;;;;;;5071214;28;3244;-57
2023/03/28 04:27:53;;;;;;;;;;;;;;;;;;5109711;28;5367;-57
2023/03/28 04:30:18;;;;;;;;;;;;;;;;;;5074956;28;4947;-54
2023/03/28 04:32:48;;;;;;;;;;;;;;;;;;5077898;28;4538;-55
2023/03/28 04:35:15;;;;;;;;;;;;;;;;;;5074884;28;4485;-57
2023/03/28 04:37:40;;;;;;;;;;;;;;;;;;5053077;28;1701;-58
2023/03/28 04:40:09;;;;;;;;;;;;;;;;;;5082038;28;4423;-57
2023/03/28 04:42:38;;;;;;;;;;;;;;;;;;5070867;28;5545;-58
2023/03/28 04:45:03;;;;;;;;;;;;;;;;;;5071532;28;5029;-58
2023/03/28 04:47:29;;;;;;;;;;;;;;;;;;5075617;28;4962;-57
2023/03/28 04:49:54;;;;;;;;;;;;;;;;;;5079977;28;4865;-56
2023/03/28 04:52:19;;;;;;;;;;;;;;;;;;5080133;28;1139;-51
2023/03/28 04:54:45;;;;;;;;;;;;;;;;;;5077988;28;4905;-57
2023/03/28 04:57:10;;;;;;;;;;;;;;;;;;5081678;28;4925;-57
2023/03/28 04:59:35;;;;;;;;;;;;;;;;;;5078099;28;4982;-57
2023/03/28 05:02:01;;;;;;;;;;;;;;;;;;5108865;27;4998;-57
2023/03/28 05:04:26;;;;;;;;;;;;;;;;;;5075927;28;4808;-56
2023/03/28 05:06:52;;;;;;;;;;;;;;;;;;5073595;28;4734;-54
2023/03/28 05:09:17;;;;;;;;;;;;;;;;;;5104929;27;4940;-55
2023/03/28 05:11:43;;;;;;;;;;;;;;;;;;5068932;28;5236;-56
2023/03/28 05:14:08;;;;;;;;;;;;;;;;;;5086010;28;5618;-58
2023/03/28 05:16:34;;;;;;;;;;;;;;;;;;5072701;28;1477;-57
2023/03/28 05:19:00;;;;;;;;;;;;;;;;;;5071582;28;4433;-58
2023/03/28 05:21:25;;;;;;;;;;;;;;;;;;5069718;28;4698;-56
2023/03/28 05:23:50;;;;;;;;;;;;;;;;;;5075809;28;4609;-57
2023/03/28 05:26:16;;;;;;;;;;;;;;;;;;5071381;28;4641;-55
2023/03/28 05:28:41;;;;;;;;;;;;;;;;;;5070919;28;1503;-57
2023/03/28 05:31:07;;;;;;;;;;;;;;;;;;5070125;28;4497;-56
2023/03/28 05:33:33;;;;;;;;;;;;;;;;;;5065291;28;4536;-55
2023/03/28 05:35:59;;;;;;;;;;;;;;;;;;5065682;28;4481;-57
2023/03/28 05:38:25;;;;;;;;;;;;;;;;;;5072466;28;4461;-56
2023/03/28 05:40:50;;;;;;;;;;;;;;;;;;5078098;28;1264;-55
2023/03/28 05:43:15;;;;;;;;;;;;;;;;;;5081060;28;4645;-56
2023/03/28 05:45:41;;;;;;;;;;;;;;;;;;5066044;28;4926;-59
2023/03/28 05:48:06;;;;;;;;;;;;;;;;;;5075739;28;4808;-59
2023/03/28 05:50:32;;;;;;;;;;;;;;;;;;5092917;27;5296;-57
2023/03/28 05:52:57;;;;;;;;;;;;;;;;;;5078660;28;5069;-58
2023/03/28 05:55:22;;;;;;;;;;;;;;;;;;5069827;28;1191;-58
2023/03/28 05:57:47;;;;;;;;;;;;;;;;;;5067835;28;5011;-56
2023/03/28 06:00:13;;;;;;;;;;;;;;;;;;5068736;28;4648;-58
2023/03/28 06:02:39;;;;;;;;;;;;;;;;;;5072849;28;5583;-57
2023/03/28 06:05:06;;;;;;;;;;;;;;;;;;5079792;28;4811;-56
2023/03/28 06:07:31;;;;;;;;;;;;;;;;;;5068767;28;3161;-57
2023/03/28 06:09:56;;;;;;;;;;;;;;;;;;5079237;28;4560;-58
2023/03/28 06:12:22;;;;;;;;;;;;;;;;;;5073504;28;4447;-58
2023/03/28 06:14:47;;;;;;;;;;;;;;;;;;5079046;28;4507;-58
2023/03/28 06:17:12;;;;;;;;;;;;;;;;;;5075937;28;5228;-57
2023/03/28 06:19:38;;;;;;;;;;;;;;;;;;5084107;28;1179;-58
2023/03/28 06:22:03;;;;;;;;;;;;;;;;;;5078680;28;4597;-58
2023/03/28 06:24:28;;;;;;;;;;;;;;;;;;5072916;28;4517;-58
2023/03/28 06:26:53;;;;;;;;;;;;;;;;;;5080288;28;5029;-57
2023/03/28 06:29:19;;;;;;;;;;;;;;;;;;5068513;28;5319;-57
2023/03/28 06:31:44;;;;;;;;;;;;;;;;;;5072379;28;3086;-57
2023/03/28 06:34:09;;;;;;;;;;;;;;;;;;5072176;28;4610;-57
2023/03/28 06:36:34;;;;;;;;;;;;;;;;;;5074233;28;4463;-57
2023/03/28 06:39:00;;;;;;;;;;;;;;;;;;5078460;28;4616;-57
2023/03/28 06:41:25;;;;;;;;;;;;;;;;;;5075208;28;4729;-57
2023/03/28 06:43:50;;;;;;;;;;;;;;;;;;5076227;28;2042;-55
2023/03/28 06:46:16;;;;;;;;;;;;;;;;;;5082696;28;4804;-58
2023/03/28 06:48:41;;;;;;;;;;;;;;;;;;5062336;28;4655;-58
2023/03/28 06:51:06;;;;;;;;;;;;;;;;;;5084260;28;4961;-58
2023/03/28 06:53:32;;;;;;;;;;;;;;;;;;5074442;28;4465;-56
2023/03/28 06:55:58;;;;;;;;;;;;;;;;;;5068605;28;4460;-59
2023/03/28 06:58:23;;;;;;;;;;;;;;;;;;5069261;28;1344;-58
2023/03/28 07:00:52;;;;;;;;;;;;;;;;;;5100328;27;4609;-57
2023/03/28 07:03:17;;;;;;;;;;;;;;;;;;5099168;27;4644;-57
2023/03/28 07:05:42;;;;;;;;;;;;;;;;;;5073781;28;4997;-59
2023/03/28 07:08:08;;;;;;;;;;;;;;;;;;5071569;28;4491;-58
2023/03/28 07:10:34;;;;;;;;;;;;;;;;;;5070734;28;3208;-58
2023/03/28 07:12:59;;;;;;;;;;;;;;;;;;5083192;28;4611;-59
2023/03/28 07:15:24;;;;;;;;;;;;;;;;;;5070598;28;4468;-57
2023/03/28 07:17:50;;;;;;;;;;;;;;;;;;5065180;28;5060;-54
2023/03/28 07:20:15;;;;;;;;;;;;;;;;;;5073034;28;4723;-57
2023/03/28 07:22:40;;;;;;;;;;;;;;;;;;5070030;28;1914;-57
2023/03/28 07:25:07;;;;;;;;;;;;;;;;;;5074096;28;4580;-58
2023/03/28 07:27:32;;;;;;;;;;;;;;;;;;5078396;28;4463;-58
2023/03/28 07:29:57;;;;;;;;;;;;;;;;;;5076238;28;4636;-57
2023/03/28 07:32:22;;;;;;;;;;;;;;;;;;5068151;28;4707;-57
2023/03/28 07:34:48;;;;;;;;;;;;;;;;;;5064860;28;3235;-60
2023/03/28 07:37:13;;;;;;;;;;;;;;;;;;5065661;28;4542;-59
2023/03/28 07:39:40;;;;;;;;;;;;;;;;;;5064608;28;4769;-60
2023/03/28 07:42:08;;;;;;;;;;;;;;;;;;5073365;28;6038;-60
2023/03/28 07:44:33;;;;;;;;;;;;;;;;;;5074867;28;5114;-59
2023/03/28 07:46:58;;;;;;;;;;;;;;;;;;5070486;28;5017;-59
2023/03/28 07:49:24;;;;;;;;;;;;;;;;;;5072514;28;1362;-60
2023/03/28 07:51:51;;;;;;;;;;;;;;;;;;5075424;28;4610;-59
2023/03/28 07:54:16;;;;;;;;;;;;;;;;;;5069804;28;4667;-60
2023/03/28 07:56:43;;;;;;;;;;;;;;;;;;5072283;28;4970;-59
2023/03/28 07:59:09;;;;;;;;;;;;;;;;;;5064259;28;4954;-59
2023/03/28 08:01:34;;;;;;;;;;;;;;;;;;5068021;28;1148;-60
2023/03/28 08:03:59;;;;;;;;;;;;;;;;;;5065012;28;5005;-59
2023/03/28 08:06:25;;;;;;;;;;;;;;;;;;5060796;28;4438;-60
2023/03/28 08:08:50;;;;;;;;;;;;;;;;;;5067380;28;4935;-59
2023/03/28 08:11:16;;;;;;;;;;;;;;;;;;5067762;28;4439;-60
2023/03/28 08:13:41;;;;;;;;;;;;;;;;;;5064035;28;1131;-59
2023/03/28 08:16:06;;;;;;;;;;;;;;;;;;5069600;28;4494;-60
2023/03/28 08:18:32;;;;;;;;;;;;;;;;;;5071633;28;4921;-60
2023/03/28 08:20:58;;;;;;;;;;;;;;;;;;5066700;28;5015;-59
2023/03/28 08:23:25;;;;;;;;;;;;;;;;;;5070113;28;4481;-60
2023/03/28 08:25:50;;;;;;;;;;;;;;;;;;5072044;28;1167;-59
2023/03/28 08:28:16;;;;;;;;;;;;;;;;;;5103732;28;4810;-59
2023/03/28 08:30:41;;;;;;;;;;;;;;;;;;5068885;28;5090;-59
2023/03/28 08:33:06;;;;;;;;;;;;;;;;;;5067447;28;5672;-59
2023/03/28 08:35:31;;;;;;;;;;;;;;;;;;5070195;28;4960;-60
2023/03/28 08:37:57;;;;;;;;;;;;;;;;;;5071561;28;4489;-60
2023/03/28 08:40:23;;;;;;;;;;;;;;;;;;5068151;28;1198;-60
2023/03/28 08:42:48;;;;;;;;;;;;;;;;;;5096380;28;4626;-59
2023/03/28 08:45:32;;;;;;;;;;;;;;;;;;5070739;28;4436;-59
2023/03/28 08:48:04;;;;;;;;;;;;;;;;;;5069380;28;4434;-59
2023/03/28 08:50:29;;;;;;;;;;;;;;;;;;5101848;28;4486;-59
2023/03/28 08:52:54;;;;;;;;;;;;;;;;;;5070997;28;4783;-59
2023/03/28 08:55:36;;;;;;;;;;;;;;;;;;5071619;28;1209;-59
2023/03/28 08:58:02;;;;;;;;;;;;;;;;;;5069034;28;4640;-59
2023/03/28 09:00:31;;;;;;;;;;;;;;;;;;5067856;28;5121;-59
2023/03/28 09:02:56;;;;;;;;;;;;;;;;;;5101166;28;5860;-59
2023/03/28 09:05:31;;;;;;;;;;;;;;;;;;5069569;28;5102;-59
2023/03/28 09:08:06;;;;;;;;;;;;;;;;;;5098158;28;4648;-59
2023/03/28 09:10:58;;;;;;;;;;;;;;;;;;5070734;28;1117;-60
2023/03/28 09:13:36;;;;;;;;;;;;;;;;;;5076683;28;4930;-59
2023/03/28 09:16:07;;;;;;;;;;;;;;;;;;5097579;28;4666;-59
2023/03/28 09:18:36;;;;;;;;;;;;;;;;;;5064162;28;4850;-59
2023/03/28 09:21:03;;;;;;;;;;;;;;;;;;5070171;28;4616;-59
2023/03/28 09:23:38;;;;;;;;;;;;;;;;;;5102498;28;4615;-60
2023/03/28 09:26:05;;;;;;;;;;;;;;;;;;5067496;28;4436;-60
2023/03/28 09:28:34;;;;;;;;;;;;;;;;;;5068125;28;1443;-59
2023/03/28 09:31:00;;;;;;;;;;;;;;;;;;5064532;28;4640;-59
2023/03/28 09:33:25;;;;;;;;;;;;;;;;;;5065268;28;5048;-59
2023/03/28 09:35:51;;;;;;;;;;;;;;;;;;5065479;28;4867;-59
2023/03/28 09:38:16;;;;;;;;;;;;;;;;;;5101887;28;5148;-60
2023/03/28 09:40:45;;;;;;;;;;;;;;;;;;5058003;28;3276;-60
2023/03/28 09:43:26;;;;;;;;;;;;;;;;;;5092772;28;5036;-56
2023/03/28 09:45:52;;;;;;;;;;;;;;;;;;5097656;28;4497;-57
2023/03/28 09:48:33;;;;;;;;;;;;;;;;;;5069830;28;4439;-57
2023/03/28 09:50:59;;;;;;;;;;;;;;;;;;5098808;28;4668;-58
2023/03/28 09:53:28;;;;;;;;;;;;;;;;;;5066584;28;4499;-58
2023/03/28 09:55:54;;;;;;;;;;;;;;;;;;5069447;28;5067;-56
2023/03/28 09:58:19;;;;;;;;;;;;;;;;;;5066555;28;1466;-57
2023/03/28 10:00:46;;;;;;;;;;;;;;;;;;5058427;28;4561;-57
2023/03/28 10:03:28;;;;;;;;;;;;;;;;;;5065315;28;4613;-59
2023/03/28 10:05:53;;;;;;;;;;;;;;;;;;5063313;28;4712;-58
2023/03/28 10:08:21;;;;;;;;;;;;;;;;;;5102089;28;5842;-56
2023/03/28 10:11:00;;;;;;;;;;;;;;;;;;5064934;28;1256;-55
2023/03/28 10:13:25;;;;;;;;;;;;;;;;;;5068201;28;5004;-57
2023/03/28 10:15:52;;;;;;;;;;;;;;;;;;5069801;28;4437;-57
2023/03/28 10:18:17;;;;;;;;;;;;;;;;;;5069438;28;4458;-57
2023/03/28 10:20:42;;;;;;;;;;;;;;;;;;5066549;28;4934;-58
2023/03/28 10:23:09;;;;;;;;;;;;;;;;;;5067378;28;4661;-57
2023/03/28 10:25:42;;;;;;;;;;;;;;;;;;5069604;28;982;-58
2023/03/28 10:28:11;;;;;;;;;;;;;;;;;;5072014;28;5180;-56
2023/03/28 10:30:37;;;;;;;;;;;;;;;;;;5091006;28;4796;-55
2023/03/28 10:33:15;;;;;;;;;;;;;;;;;;5069103;28;4459;-56
2023/03/28 10:35:42;;;;;;;;;;;;;;;;;;5068712;28;5274;-56
2023/03/28 10:38:17;;;;;;;;;;;;;;;;;;5059158;28;4482;-57
2023/03/28 10:40:42;;;;;;;;;;;;;;;;;;5068475;28;1140;-56
2023/03/28 10:43:13;;;;;;;;;;;;;;;;;;5066215;28;5106;-58
2023/03/28 10:45:39;;;;;;;;;;;;;;;;;;5068447;28;5043;-56
2023/03/28 10:48:14;;;;;;;;;;;;;;;;;;5098196;28;4593;-57
2023/03/28 10:50:47;;;;;;;;;;;;;;;;;;5063475;28;4647;-57
2023/03/28 10:53:19;;;;;;;;;;;;;;;;;;5068612;28;4865;-56
2023/03/28 10:56:09;;;;;;;;;;;;;;;;;;5064033;28;1185;-56
2023/03/28 10:58:35;;;;;;;;;;;;;;;;;;5070589;28;4956;-54
2023/03/28 11:01:04;;;;;;;;;;;;;;;;;;5062294;28;4609;-57
2023/03/28 11:03:36;;;;;;;;;;;;;;;;;;5100265;28;5144;-57
2023/03/28 11:06:04;;;;;;;;;;;;;;;;;;5064661;28;4934;-57
2023/03/28 11:08:42;;;;;;;;;;;;;;;;;;5100551;28;5021;-56
2023/03/28 11:11:18;;;;;;;;;;;;;;;;;;5067722;28;5039;-57
2023/03/28 11:13:49;;;;;;;;;;;;;;;;;;5096114;28;1139;-57
2023/03/28 11:16:21;;;;;;;;;;;;;;;;;;5064817;28;4571;-56
2023/03/28 11:19:05;;;;;;;;;;;;;;;;;;5100797;28;5005;-56
2023/03/28 11:21:40;;;;;;;;;;;;;;;;;;5067686;28;4953;-56
2023/03/28 11:24:11;;;;;;;;;;;;;;;;;;5063426;28;5124;-57
2023/03/28 11:26:46;;;;;;;;;;;;;;;;;;5066536;28;4447;-55
2023/03/28 11:29:11;;;;;;;;;;;;;;;;;;5096869;28;4459;-55
2023/03/28 11:31:39;;;;;;;;;;;;;;;;;;5064790;28;1369;-55
2023/03/28 11:34:39;;;;;;;;;;;;;;;;;;5099825;28;5918;-55
2023/03/28 11:37:06;;;;;;;;;;;;;;;;;;5062718;28;4456;-56
2023/03/28 11:39:31;;;;;;;;;;;;;;;;;;5067081;28;4661;-56
2023/03/28 11:41:58;;;;;;;;;;;;;;;;;;5064758;28;5099;-56
2023/03/28 11:44:28;;;;;;;;;;;;;;;;;;5051086;28;5214;-57
2023/03/28 11:47:12;;;;;;;;;;;;;;;;;;5100264;28;4507;-51
2023/03/28 11:49:37;;;;;;;;;;;;;;;;;;5072040;28;1515;-56
2023/03/28 11:52:02;;;;;;;;;;;;;;;;;;5064859;28;4987;-55
2023/03/28 11:54:34;;;;;;;;;;;;;;;;;;5099604;28;4592;-56
2023/03/28 11:57:01;;;;;;;;;;;;;;;;;;5097739;28;4467;-57
2023/03/28 11:59:26;;;;;;;;;;;;;;;;;;5090639;28;4610;-55
2023/03/28 12:02:18;;;;;;;;;;;;;;;;;;5068015;28;1181;-57
2023/03/28 12:04:54;;;;;;;;;;;;;;;;;;5059785;28;4935;-65
2023/03/28 12:07:39;;;;;;;;;;;;;;;;;;5060680;28;5169;-64
2023/03/28 12:10:16;;;;;;;;;;;;;;;;;;5098290;28;4453;-64
2023/03/28 12:13:00;;;;;;;;;;;;;;;;;;5057973;28;4736;-65
2023/03/28 12:15:44;;;;;;;;;;;;;;;;;;5065210;28;6081;-63
2023/03/28 12:18:20;;;;;;;;;;;;;;;;;;5062110;28;4818;-61
2023/03/28 12:20:48;;;;;;;;;;;;;;;;;;5091346;28;4508;-64
2023/03/28 12:23:26;;;;;;;;;;;;;;;;;;5058869;28;4467;-63
2023/03/28 12:26:02;;;;;;;;;;;;;;;;;;5094846;28;2421;-65
2023/03/28 12:28:34;;;;;;;;;;;;;;;;;;5099882;28;5663;-65
2023/03/28 12:31:04;;;;;;;;;;;;;;;;;;5068158;28;5249;-65
2023/03/28 12:33:36;;;;;;;;;;;;;;;;;;5068280;28;4451;-65
2023/03/28 12:36:16;;;;;;;;;;;;;;;;;;5063523;28;4446;-67
2023/03/28 12:39:07;;;;;;;;;;;;;;;;;;5066101;28;5130;-67
2023/03/28 12:41:36;;;;;;;;;;;;;;;;;;5061640;28;4671;-68
2023/03/28 12:44:06;;;;;;;;;;;;;;;;;;5059453;28;4890;-67
2023/03/28 12:46:33;;;;;;;;;;;;;;;;;;5098285;28;1002;-66
2023/03/28 12:49:11;;;;;;;;;;;;;;;;;;5065269;28;4427;-68
2023/03/28 12:51:37;;;;;;;;;;;;;;;;;;5098218;28;4498;-68
2023/03/28 12:54:15;;;;;;;;;;;;;;;;;;5095546;28;5320;-68
2023/03/28 12:56:43;;;;;;;;;;;;;;;;;;5064988;28;4444;-67
2023/03/28 12:59:27;;;;;;;;;;;;;;;;;;5067206;28;4628;-69
2023/03/28 13:01:53;;;;;;;;;;;;;;;;;;5054272;28;3370;-67
2023/03/28 13:04:25;;;;;;;;;;;;;;;;;;5069236;28;6042;-68
2023/03/28 13:06:54;;;;;;;;;;;;;;;;;;5102399;27;4945;-60
2023/03/28 13:09:30;;;;;;;;;;;;;;;;;;5073638;28;4853;-68
2023/03/28 13:11:58;;;;;;;;;;;;;;;;;;5061652;28;4604;-69
2023/03/28 13:14:30;;;;;;;;;;;;;;;;;;5073455;28;4425;-69
2023/03/28 13:17:00;;;;;;;;;;;;;;;;;;5066114;28;4589;-68
2023/03/28 13:19:51;;;;;;;;;;;;;;;;;;5065612;28;1589;-69
2023/03/28 13:22:22;;;;;;;;;;;;;;;;;;5057045;28;4505;-66
2023/03/28 13:24:48;;;;;;;;;;;;;;;;;;5069251;28;4871;-70
2023/03/28 13:27:15;;;;;;;;;;;;;;;;;;5069817;28;4813;-69
2023/03/28 13:29:44;;;;;;;;;;;;;;;;;;5093841;27;4628;-69
2023/03/28 13:32:16;;;;;;;;;;;;;;;;;;5069023;28;4888;-68
2023/03/28 13:34:48;;;;;;;;;;;;;;;;;;5069309;28;3168;-65
2023/03/28 13:37:23;;;;;;;;;;;;;;;;;;5065876;28;5237;-60
2023/03/28 13:39:49;;;;;;;;;;;;;;;;;;5064495;28;4835;-66
2023/03/28 13:42:24;;;;;;;;;;;;;;;;;;5081110;28;4933;-66
2023/03/28 13:44:49;;;;;;;;;;;;;;;;;;5057805;28;4553;-71
2023/03/28 13:47:17;;;;;;;;;;;;;;;;;;5085521;28;4519;-58
2023/03/28 13:49:47;;;;;;;;;;;;;;;;;;5096511;27;3224;-49
2023/03/28 13:52:12;;;;;;;;;;;;;;;;;;5096907;28;4922;-49
2023/03/28 13:54:37;;;;;;;;;;;;;;;;;;5068451;28;4710;-46
2023/03/28 13:57:07;;;;;;;;;;;;;;;;;;5063397;28;4746;-47
2023/03/28 13:59:34;;;;;;;;;;;;;;;;;;5062499;28;4483;-47
2023/03/28 14:01:59;;;;;;;;;;;;;;;;;;5066693;28;4453;-45
2023/03/28 14:04:28;;;;;;;;;;;;;;;;;;5066889;28;4788;-50
2023/03/28 14:06:54;;;;;;;;;;;;;;;;;;5073765;28;4962;-45
2023/03/28 14:09:19;;;;;;;;;;;;;;;;;;5101617;28;4438;-45
2023/03/28 14:11:45;;;;;;;;;;;;;;;;;;5098658;28;4974;-46
2023/03/28 14:14:14;;;;;;;;;;;;;;;;;;5085403;27;5128;-49
2023/03/28 14:16:40;;;;;;;;;;;;;;;;;;5095104;27;3720;-48
2023/03/28 14:19:06;;;;;;;;;;;;;;;;;;5066491;28;5093;-46
2023/03/28 14:21:32;;;;;;;;;;;;;;;;;;5101298;27;5163;-46
2023/03/28 14:23:57;;;;;;;;;;;;;;;;;;5067750;28;4845;-46
2023/03/28 14:26:24;;;;;;;;;;;;;;;;;;5095032;28;5032;-46
2023/03/28 14:28:50;;;;;;;;;;;;;;;;;;5063373;28;3283;-46
2023/03/28 14:31:30;;;;;;;;;;;;;;;;;;5076735;28;4520;-45
2023/03/28 14:33:58;;;;;;;;;;;;;;;;;;5098287;28;4467;-50
2023/03/28 14:36:24;;;;;;;;;;;;;;;;;;5068041;28;4463;-46
2023/03/28 14:38:50;;;;;;;;;;;;;;;;;;5068464;28;4552;-47
2023/03/28 14:41:18;;;;;;;;;;;;;;;;;;5062775;28;4542;-47
2023/03/28 14:43:45;;;;;;;;;;;;;;;;;;5064722;28;1955;-48
2023/03/28 14:46:11;;;;;;;;;;;;;;;;;;5068155;28;4496;-48
2023/03/28 14:48:36;;;;;;;;;;;;;;;;;;5099933;28;4465;-49
2023/03/28 14:51:04;;;;;;;;;;;;;;;;;;5067620;28;4450;-46
2023/03/28 14:53:33;;;;;;;;;;;;;;;;;;5059111;28;4621;-48
2023/03/28 14:55:59;;;;;;;;;;;;;;;;;;5060001;28;4464;-45
2023/03/28 14:58:25;;;;;;;;;;;;;;;;;;5098975;28;1212;-46
2023/03/28 15:00:50;;;;;;;;;;;;;;;;;;5062926;28;4626;-47
2023/03/28 15:03:21;;;;;;;;;;;;;;;;;;5096079;28;4489;-47
2023/03/28 15:05:47;;;;;;;;;;;;;;;;;;5100203;28;4928;-50
2023/03/28 15:08:34;;;;;;;;;;;;;;;;;;5067723;28;4983;-48
2023/03/28 15:11:02;;;;;;;;;;;;;;;;;;5057382;28;5199;-47
2023/03/28 15:13:47;;;;;;;;;;;;;;;;;;5065599;28;1110;-48
2023/03/28 15:16:18;;;;;;;;;;;;;;;;;;5065369;28;4690;-50
2023/03/28 15:18:45;;;;;;;;;;;;;;;;;;5064677;28;4506;-49
2023/03/28 15:21:11;;;;;;;;;;;;;;;;;;5091106;28;4463;-48
2023/03/28 15:23:42;;;;;;;;;;;;;;;;;;5096724;27;5117;-45
2023/03/28 15:26:08;;;;;;;;;;;;;;;;;;5056778;28;5586;-48
2023/03/28 15:28:33;;;;;;;;;;;;;;;;;;5063195;28;3323;-47
2023/03/28 15:30:59;;;;;;;;;;;;;;;;;;5092054;28;4865;-45
2023/03/28 15:33:25;;;;;;;;;;;;;;;;;;5089868;28;4694;-47
2023/03/28 15:36:02;;;;;;;;;;;;;;;;;;5061940;28;5007;-51
2023/03/28 15:38:27;;;;;;;;;;;;;;;;;;5055884;28;5129;-50
2023/03/28 15:41:11;;;;;;;;;;;;;;;;;;5062807;28;3335;-49
2023/03/28 15:43:55;;;;;;;;;;;;;;;;;;5064681;28;5086;-48
2023/03/28 15:46:29;;;;;;;;;;;;;;;;;;5063543;28;4880;-49
2023/03/28 15:49:01;;;;;;;;;;;;;;;;;;5055833;28;4780;-46
2023/03/28 15:51:26;;;;;;;;;;;;;;;;;;5060932;28;4509;-48
2023/03/28 15:53:53;;;;;;;;;;;;;;;;;;5057650;28;4522;-50
2023/03/28 15:56:28;;;;;;;;;;;;;;;;;;5094014;28;4621;-58
2023/03/28 15:59:00;;;;;;;;;;;;;;;;;;5063711;28;3053;-52
2023/03/28 16:01:27;;;;;;;;;;;;;;;;;;5095992;28;4851;-52
2023/03/28 16:04:12;;;;;;;;;;;;;;;;;;5064511;28;5141;-54
2023/03/28 16:06:41;;;;;;;;;;;;;;;;;;5063489;28;4937;-56
2023/03/28 16:09:27;;;;;;;;;;;;;;;;;;5066250;28;4647;-56
2023/03/28 16:11:59;;;;;;;;;;;;;;;;;;5067014;28;4690;-53
2023/03/28 16:14:24;;;;;;;;;;;;;;;;;;5093994;28;4570;-64
2023/03/28 16:16:53;;;;;;;;;;;;;;;;;;5065766;28;3157;-53
2023/03/28 16:19:23;;;;;;;;;;;;;;;;;;5064695;28;4734;-54
2023/03/28 16:21:48;;;;;;;;;;;;;;;;;;5066058;28;4653;-52
2023/03/28 16:24:13;;;;;;;;;;;;;;;;;;5062444;28;5071;-52
2023/03/28 16:26:39;;;;;;;;;;;;;;;;;;5067113;28;5125;-52
2023/03/28 16:29:04;;;;;;;;;;;;;;;;;;5065636;28;4741;-53
2023/03/28 16:31:29;;;;;;;;;;;;;;;;;;5060139;28;3197;-52
2023/03/28 16:33:55;;;;;;;;;;;;;;;;;;5054282;28;5074;-53
2023/03/28 16:36:20;;;;;;;;;;;;;;;;;;5057499;28;5062;-52
2023/03/28 16:38:46;;;;;;;;;;;;;;;;;;5062424;28;4798;-52
2023/03/28 16:41:11;;;;;;;;;;;;;;;;;;5062772;28;4507;-53
2023/03/28 16:43:37;;;;;;;;;;;;;;;;;;5063980;28;3545;-50
2023/03/28 16:46:02;;;;;;;;;;;;;;;;;;5064722;28;5015;-51
2023/03/28 16:48:28;;;;;;;;;;;;;;;;;;5061673;28;4523;-53
2023/03/28 16:50:54;;;;;;;;;;;;;;;;;;5060215;28;4625;-53
2023/03/28 16:53:20;;;;;;;;;;;;;;;;;;5067077;28;4695;-50
2023/03/28 16:55:45;;;;;;;;;;;;;;;;;;5069586;28;3365;-53
2023/03/28 16:58:11;;;;;;;;;;;;;;;;;;5068758;28;4431;-54
2023/03/28 17:00:37;;;;;;;;;;;;;;;;;;5046449;28;4541;-52
2023/03/28 17:03:03;;;;;;;;;;;;;;;;;;5066535;28;4974;-51
2023/03/28 17:05:29;;;;;;;;;;;;;;;;;;5062153;28;5059;-53
2023/03/28 17:07:55;;;;;;;;;;;;;;;;;;5056998;28;4552;-50
2023/03/28 17:10:20;;;;;;;;;;;;;;;;;;5067016;28;3246;-49
2023/03/28 17:12:46;;;;;;;;;;;;;;;;;;5062599;28;4827;-50